الصفحة الرئيسية
METAR-TAF:

METAR-TAF

مطار :

مطار شيراز الدولي

شيراز, إيران

دائرة عرض: 29-32N, خط طول: 052-35E, ارتفاع: 1486 متر

مراقبة الطقس الحالي

تاريخ ووقت الإصدار 25 دقيقة قبل الساعة 15:00UTC
ريح 4 عقدة من الجنوب الغربي
درجة الحرارة 33°درجة مئوية
الرطوبة 16%
ضغط 1008 hPa
الرؤية 10 كم أو أكثر
غيوم قليلة على ارتفاع 4000 قدم

METAR: OISS 141500Z 22004KT 9999 FEW040 33/04 Q1008 A2978

زمن: 19:55 (15:25 UTC)

توقعات

تاريخ ووقت الإصدار 4ساعات و 10 دقيقة قبل الساعة 11:15UTC
التوقعات صالحة من14 الساعة 12 UTC إلى 15 الساعة 18 UTC
ريح 7 عقدة من الشرق/الجنوب الشرقي
الرؤية: 8000 متر
مؤقت
من 14 الساعة 12 UTC إلى 14 الساعة 17 UTC
ريح 15 عقدة من الغرب/الجنوب الغربي
غيوم قليلة على ارتفاع 3500 قدم, مزن ركامية عمودية.
مؤقت
من 15 الساعة 08 UTC إلى 15 الساعة 15 UTC
ريح 15 عقدة من الغرب/الجنوب الغربي
غيوم قليلة على ارتفاع 3500 قدم, مزن ركامية عمودية.

TAF: OISS 141115Z 1412/1518 12007KT 8000 NSC TEMPO 1412/1417 25015KT FEW035TCU TEMPO 1508/1515 25015KT FEW035TCU

أرصاد الطقس والتوقعات من أكثر من 4000 مطار (تقارير الطقس للمطار METAR والتنبؤ بالطقس بالمطارTAF).

المحطات المتاحة هي النقط الصفراء والحمراء على الخريطة.

حرك المؤشر فوق النقطة لمعرفة اسم المحطة.

ثم انقر لمعرفة أرصاد وتوقعات الطقس.

لتغيير الخارطة: اضغط على الأزرار الخضراء مع رمز الصليب الأسود للتكبير. على الزر الأخضر مع شرطة للتصغير، أو على الأسهم الخضراء للخرائط المجاورة.


METAR-TAF: